Time;durP1;ratioP1;P1;durP2;ratioP2;P2;SDS_P1;SDS_P2;PMS_P1;PMS_P2;Temp;Humidity;BMP_temperature;BMP_pressure;BME280_temperature;BME280_humidity;BME280_pressure;Samples;Min_cycle;Max_cycle;Signal;HPM_P1;HPM_P2
2021/11/05 00:01:58;;;;;;;5.43;4.90;;;4.50;99.90;;;;;;5021038;28;20184;-65
2021/11/05 00:04:24;;;;;;;5.53;4.60;;;4.50;99.90;;;;;;5024695;28;20448;-65
2021/11/05 00:06:50;;;;;;;5.87;4.63;;;4.60;99.90;;;;;;5029818;28;20212;-64
2021/11/05 00:09:16;;;;;;;7.90;4.50;;;4.60;99.90;;;;;;5022060;28;20198;-65
2021/11/05 00:11:41;;;;;;;4.50;3.70;;;4.60;99.90;;;;;;5015713;28;20259;-65
2021/11/05 00:14:07;;;;;;;5.37;4.43;;;4.60;99.90;;;;;;5018049;28;20183;-65
2021/11/05 00:16:32;;;;;;;6.77;5.00;;;4.60;99.90;;;;;;5022405;28;20226;-65
2021/11/05 00:18:58;;;;;;;5.70;4.80;;;4.50;99.90;;;;;;5016069;28;20205;-65
2021/11/05 00:21:24;;;;;;;4.93;4.50;;;4.50;99.90;;;;;;5013635;28;20567;-64
2021/11/05 00:23:49;;;;;;;8.13;5.50;;;4.50;99.90;;;;;;5014308;28;20192;-65
2021/11/05 00:26:15;;;;;;;5.50;4.50;;;4.50;99.90;;;;;;5027473;28;20741;-65
2021/11/05 00:28:41;;;;;;;6.33;5.23;;;4.40;99.90;;;;;;5028747;28;20230;-64
2021/11/05 00:31:06;;;;;;;8.80;4.90;;;4.40;99.90;;;;;;5022026;28;20188;-64
2021/11/05 00:33:32;;;;;;;6.50;5.10;;;4.40;99.90;;;;;;5022325;28;20184;-65
2021/11/05 00:35:58;;;;;;;8.50;5.27;;;4.30;99.90;;;;;;5017756;28;20176;-65
2021/11/05 00:38:23;;;;;;;7.40;5.27;;;4.30;99.90;;;;;;5028084;28;20199;-63
2021/11/05 00:40:49;;;;;;;7.83;5.57;;;4.30;99.90;;;;;;5021243;28;20183;-65
2021/11/05 00:43:15;;;;;;;10.50;5.37;;;4.30;99.90;;;;;;5013857;28;20272;-66
2021/11/05 00:45:41;;;;;;;6.03;4.97;;;4.20;99.90;;;;;;5023386;28;20687;-66
2021/11/05 00:48:06;;;;;;;6.57;5.43;;;4.20;99.90;;;;;;5022757;28;20238;-65
2021/11/05 00:50:33;;;;;;;6.80;5.13;;;4.20;99.90;;;;;;5013092;28;20180;-65
2021/11/05 00:52:59;;;;;;;6.40;5.50;;;4.10;99.90;;;;;;5027906;28;20176;-64
2021/11/05 00:55:25;;;;;;;6.50;4.97;;;4.20;99.90;;;;;;5033094;28;20932;-65
2021/11/05 00:57:51;;;;;;;7.80;5.37;;;4.10;99.90;;;;;;5027795;28;20979;-65
2021/11/05 01:00:17;;;;;;;7.67;5.33;;;4.10;99.90;;;;;;5024477;28;20439;-65
2021/11/05 01:02:44;;;;;;;9.80;5.07;;;4.20;99.90;;;;;;5031715;28;20936;-65
2021/11/05 01:05:11;;;;;;;6.70;5.50;;;4.20;99.90;;;;;;5019469;28;20188;-65
2021/11/05 01:07:36;;;;;;;6.17;5.03;;;4.20;99.90;;;;;;5029856;28;20465;-65
2021/11/05 01:10:03;;;;;;;6.37;5.30;;;4.20;99.90;;;;;;5026912;28;20442;-65
2021/11/05 01:12:29;;;;;;;7.43;6.10;;;4.20;99.90;;;;;;5026175;28;20271;-65
2021/11/05 01:14:54;;;;;;;7.20;5.80;;;4.20;99.90;;;;;;5022541;28;20509;-65
2021/11/05 01:17:20;;;;;;;6.17;5.27;;;4.20;99.90;;;;;;5028944;28;20278;-65
2021/11/05 01:19:46;;;;;;;7.23;5.60;;;4.20;99.90;;;;;;5023761;28;20188;-65
2021/11/05 01:22:12;;;;;;;7.37;5.47;;;4.20;99.90;;;;;;5030772;28;20183;-63
2021/11/05 01:24:38;;;;;;;10.33;5.73;;;4.30;99.90;;;;;;5022245;28;20617;-65
2021/11/05 01:27:04;;;;;;;7.70;5.17;;;4.30;99.90;;;;;;5024862;28;20987;-65
2021/11/05 01:29:29;;;;;;;6.70;5.73;;;4.30;99.90;;;;;;5009492;28;20211;-65
2021/11/05 01:31:56;;;;;;;7.57;5.50;;;4.30;99.90;;;;;;5019656;28;20445;-65
2021/11/05 01:34:22;;;;;;;6.40;5.23;;;4.30;99.90;;;;;;5028475;28;20207;-65
2021/11/05 01:36:48;;;;;;;7.10;5.90;;;4.20;99.90;;;;;;5023698;28;20485;-65
2021/11/05 01:39:15;;;;;;;9.77;5.77;;;4.20;99.90;;;;;;5025151;28;20641;-65
2021/11/05 01:41:41;;;;;;;8.47;6.33;;;4.20;99.90;;;;;;5028345;28;20180;-65
2021/11/05 01:44:07;;;;;;;9.20;5.70;;;4.20;99.90;;;;;;5026629;28;20871;-66
2021/11/05 01:46:33;;;;;;;9.47;5.70;;;4.20;99.90;;;;;;5029157;28;20210;-65
2021/11/05 01:48:59;;;;;;;6.40;5.57;;;4.20;99.90;;;;;;5031008;28;20465;-65
2021/11/05 01:51:25;;;;;;;5.87;4.93;;;4.30;99.90;;;;;;5021096;28;20528;-64
2021/11/05 01:53:50;;;;;;;7.00;5.03;;;4.20;99.90;;;;;;5026783;28;20247;-65
2021/11/05 01:56:17;;;;;;;7.23;5.03;;;4.30;99.90;;;;;;5029338;28;20187;-65
2021/11/05 01:58:42;;;;;;;6.70;5.10;;;4.30;99.90;;;;;;5025352;28;20181;-65
2021/11/05 02:01:08;;;;;;;8.03;6.23;;;4.30;99.90;;;;;;5023099;28;20434;-65
2021/11/05 02:03:34;;;;;;;10.03;5.67;;;4.30;99.90;;;;;;5018952;28;20187;-66
2021/11/05 02:06:01;;;;;;;7.57;5.10;;;4.30;99.90;;;;;;5026377;28;20679;-65
2021/11/05 02:08:27;;;;;;;8.00;5.70;;;4.20;99.90;;;;;;5027931;28;20207;-65
2021/11/05 02:10:54;;;;;;;6.90;5.13;;;4.20;99.90;;;;;;5030524;28;20991;-64
2021/11/05 02:13:22;;;;;;;9.97;6.13;;;4.20;99.90;;;;;;5029925;28;20524;-64
2021/11/05 02:15:49;;;;;;;9.07;5.70;;;4.20;99.90;;;;;;5019918;28;20510;-65
2021/11/05 02:18:15;;;;;;;7.43;5.53;;;4.20;99.90;;;;;;5023856;28;20849;-64
2021/11/05 02:20:41;;;;;;;6.97;5.67;;;4.20;99.90;;;;;;5028673;28;20438;-64
2021/11/05 02:23:07;;;;;;;7.40;5.73;;;4.20;99.90;;;;;;5029387;28;20501;-65
2021/11/05 02:25:33;;;;;;;7.93;5.97;;;4.10;99.90;;;;;;5027640;28;20438;-65
2021/11/05 02:27:59;;;;;;;7.70;6.00;;;4.10;99.90;;;;;;5027808;28;21010;-65
2021/11/05 02:30:25;;;;;;;8.77;5.90;;;4.10;99.90;;;;;;5026310;28;20800;-65
2021/11/05 02:32:51;;;;;;;9.20;6.20;;;4.10;99.90;;;;;;5030373;28;20470;-65
2021/11/05 02:35:17;;;;;;;7.17;5.50;;;4.20;99.90;;;;;;5026716;28;20423;-64
2021/11/05 02:37:44;;;;;;;5.73;4.83;;;4.20;99.90;;;;;;5027332;28;20223;-64
2021/11/05 02:40:11;;;;;;;8.53;5.70;;;4.20;99.90;;;;;;5024135;28;20427;-64
2021/11/05 02:42:37;;;;;;;7.27;5.67;;;4.20;99.90;;;;;;5020693;28;20512;-64
2021/11/05 02:45:05;;;;;;;9.30;5.90;;;4.20;99.90;;;;;;5016434;28;20812;-64
2021/11/05 02:47:31;;;;;;;8.87;6.03;;;4.30;99.90;;;;;;5015263;28;20500;-64
2021/11/05 02:50:05;;;;;;;8.87;6.00;;;4.30;99.90;;;;;;5023726;28;20423;-64
2021/11/05 02:52:31;;;;;;;8.23;5.60;;;4.30;99.90;;;;;;5022080;28;20179;-65
2021/11/05 02:54:57;;;;;;;8.80;6.43;;;4.30;99.90;;;;;;5019225;28;20469;-65
2021/11/05 02:57:22;;;;;;;7.90;5.90;;;4.30;99.90;;;;;;5020561;28;21091;-65
2021/11/05 02:59:48;;;;;;;8.73;6.27;;;4.30;99.90;;;;;;5024681;28;20176;-64
2021/11/05 03:02:14;;;;;;;12.43;6.07;;;4.30;99.90;;;;;;5028558;28;20777;-65
2021/11/05 03:04:39;;;;;;;9.00;6.70;;;4.20;99.90;;;;;;5024785;28;20179;-64
2021/11/05 03:07:08;;;;;;;8.87;6.40;;;4.20;99.90;;;;;;5024766;28;20217;-65
2021/11/05 03:09:39;;;;;;;9.03;6.43;;;4.20;99.90;;;;;;5030053;28;20601;-63
2021/11/05 03:12:06;;;;;;;8.93;7.10;;;4.20;99.90;;;;;;5029277;28;20405;-65
2021/11/05 03:14:32;;;;;;;9.27;6.67;;;4.20;99.90;;;;;;5017157;28;20423;-64
2021/11/05 03:16:58;;;;;;;10.10;6.60;;;4.20;99.90;;;;;;5028457;28;20868;-64
2021/11/05 03:19:24;;;;;;;10.10;6.90;;;4.20;99.90;;;;;;5028721;28;20194;-64
2021/11/05 03:21:51;;;;;;;9.47;7.03;;;4.20;99.90;;;;;;5022260;28;20807;-65
2021/11/05 03:24:18;;;;;;;9.00;6.20;;;4.20;99.90;;;;;;5025487;28;20434;-65
2021/11/05 03:26:44;;;;;;;7.00;5.63;;;4.20;99.90;;;;;;5020614;28;20475;-64
2021/11/05 03:29:09;;;;;;;9.70;6.70;;;4.20;99.90;;;;;;5027545;28;20455;-65
2021/11/05 03:31:35;;;;;;;9.70;6.10;;;4.20;99.90;;;;;;5026036;28;20782;-65
2021/11/05 03:34:02;;;;;;;9.43;6.70;;;4.20;99.90;;;;;;5030389;28;20168;-64
2021/11/05 03:36:28;;;;;;;8.93;6.50;;;4.20;99.90;;;;;;5022042;28;20446;-65
2021/11/05 03:38:54;;;;;;;9.13;6.00;;;4.20;99.90;;;;;;5028076;28;20492;-65
2021/11/05 03:41:21;;;;;;;7.63;6.03;;;4.20;99.90;;;;;;5025352;28;20654;-65
2021/11/05 03:43:47;;;;;;;10.03;6.80;;;4.20;99.90;;;;;;5023392;28;20448;-65
2021/11/05 03:46:15;;;;;;;10.23;6.77;;;4.20;99.90;;;;;;5024590;28;20410;-65
2021/11/05 03:48:41;;;;;;;9.40;6.50;;;4.20;99.90;;;;;;5026643;28;21104;-64
2021/11/05 03:51:08;;;;;;;10.13;6.50;;;4.10;99.90;;;;;;5017345;28;20420;-65
2021/11/05 03:53:34;;;;;;;10.83;6.83;;;4.10;99.90;;;;;;5029327;28;20434;-64
2021/11/05 03:56:00;;;;;;;8.80;6.27;;;4.10;99.90;;;;;;5029790;28;20563;-65
2021/11/05 03:58:25;;;;;;;8.70;6.47;;;4.00;99.90;;;;;;5028064;28;20561;-65
2021/11/05 04:00:52;;;;;;;8.97;6.67;;;4.00;99.90;;;;;;5019662;28;20184;-64
2021/11/05 04:03:17;;;;;;;9.03;6.57;;;4.00;99.90;;;;;;5028921;28;20175;-65
2021/11/05 04:05:43;;;;;;;11.10;6.27;;;3.90;99.90;;;;;;5018505;28;20437;-64
2021/11/05 04:08:09;;;;;;;14.07;7.10;;;3.90;99.90;;;;;;5029273;28;20214;-64
2021/11/05 04:10:37;;;;;;;9.43;6.40;;;3.90;99.90;;;;;;5025994;28;20258;-64
2021/11/05 04:13:03;;;;;;;9.60;6.07;;;3.80;99.90;;;;;;5023760;28;20671;-64
2021/11/05 04:15:29;;;;;;;10.53;6.93;;;3.80;99.90;;;;;;5024011;28;20506;-64
2021/11/05 04:17:54;;;;;;;12.07;7.30;;;3.70;99.90;;;;;;5017673;28;20544;-65
2021/11/05 04:20:20;;;;;;;9.47;6.97;;;3.70;99.90;;;;;;5025214;28;20590;-64
2021/11/05 04:22:46;;;;;;;11.97;7.23;;;3.60;99.90;;;;;;5015855;28;20959;-64
2021/11/05 04:25:12;;;;;;;9.93;7.40;;;3.60;99.90;;;;;;5010546;28;20568;-64
2021/11/05 04:27:38;;;;;;;12.13;7.63;;;3.60;99.90;;;;;;5009507;28;20263;-63
2021/11/05 04:30:06;;;;;;;10.70;6.90;;;3.60;99.90;;;;;;5018614;28;20495;-64
2021/11/05 04:32:32;;;;;;;11.80;7.40;;;3.60;99.90;;;;;;5012625;28;20204;-65
2021/11/05 04:34:58;;;;;;;16.60;9.30;;;3.60;99.90;;;;;;5024777;28;20952;-65
2021/11/05 04:37:23;;;;;;;12.97;8.60;;;3.60;99.90;;;;;;5023862;28;20446;-64
2021/11/05 04:39:49;;;;;;;15.13;8.60;;;3.60;99.90;;;;;;5022005;28;20251;-64
2021/11/05 04:42:15;;;;;;;11.17;7.80;;;3.60;99.90;;;;;;5023791;28;20262;-64
2021/11/05 04:44:40;;;;;;;15.37;9.23;;;3.60;99.90;;;;;;5021959;28;20183;-64
2021/11/05 04:47:06;;;;;;;15.63;8.53;;;3.60;99.90;;;;;;5028625;28;20194;-64
2021/11/05 04:49:32;;;;;;;20.13;11.20;;;3.60;99.90;;;;;;5025152;28;20341;-64
2021/11/05 04:51:57;;;;;;;12.47;7.43;;;3.60;99.90;;;;;;5025078;28;20187;-63
2021/11/05 04:54:23;;;;;;;11.87;7.83;;;3.60;99.90;;;;;;5011606;28;20182;-64
2021/11/05 04:56:50;;;;;;;11.70;7.47;;;3.70;99.90;;;;;;5029285;28;20191;-65
2021/11/05 04:59:18;;;;;;;11.33;7.40;;;3.70;99.90;;;;;;5026421;28;20222;-64
2021/11/05 05:01:45;;;;;;;10.43;6.77;;;3.80;99.90;;;;;;5017195;28;20832;-64
2021/11/05 05:04:10;;;;;;;11.17;7.03;;;3.80;99.90;;;;;;5016899;28;20418;-64
2021/11/05 05:06:37;;;;;;;10.13;7.03;;;3.80;99.90;;;;;;5027198;28;20508;-65
2021/11/05 05:09:03;;;;;;;12.03;7.20;;;3.80;99.90;;;;;;5017583;28;20188;-65
2021/11/05 05:11:29;;;;;;;10.37;7.00;;;3.90;99.90;;;;;;5020444;28;20465;-64
2021/11/05 05:13:55;;;;;;;10.90;6.93;;;3.90;99.90;;;;;;5017402;28;21106;-64
2021/11/05 05:16:21;;;;;;;13.63;7.40;;;3.90;99.90;;;;;;5022957;28;20971;-65
2021/11/05 05:18:47;;;;;;;10.50;6.73;;;3.90;99.90;;;;;;5028539;28;20925;-64
2021/11/05 05:21:13;;;;;;;10.43;7.00;;;4.00;99.90;;;;;;5021250;28;20209;-64
2021/11/05 05:23:39;;;;;;;11.13;7.13;;;4.00;99.90;;;;;;5021402;28;20203;-64
2021/11/05 05:26:05;;;;;;;10.27;7.17;;;4.00;99.90;;;;;;5018715;28;20465;-64
2021/11/05 05:28:31;;;;;;;11.90;7.87;;;4.10;99.90;;;;;;5024198;28;20200;-65
2021/11/05 05:31:07;;;;;;;12.10;7.03;;;4.10;99.90;;;;;;5017328;28;20471;-65
2021/11/05 05:33:36;;;;;;;10.33;7.30;;;4.10;99.90;;;;;;5015183;28;20820;-64
2021/11/05 05:36:04;;;;;;;10.83;7.40;;;4.10;99.90;;;;;;5027614;28;20458;-64
2021/11/05 05:38:30;;;;;;;10.40;7.30;;;4.20;99.90;;;;;;5018701;28;20508;-64
2021/11/05 05:40:56;;;;;;;11.37;7.43;;;4.20;99.90;;;;;;5023685;28;20541;-64
2021/11/05 05:43:21;;;;;;;10.20;6.93;;;4.20;99.90;;;;;;5028591;28;20234;-64
2021/11/05 05:45:47;;;;;;;12.03;7.97;;;4.20;99.90;;;;;;5031718;28;20656;-65
2021/11/05 05:48:13;;;;;;;11.60;7.40;;;4.20;99.90;;;;;;5029282;28;20835;-65
2021/11/05 05:50:38;;;;;;;12.20;7.93;;;4.20;99.90;;;;;;5026706;28;20176;-65
2021/11/05 05:53:04;;;;;;;12.43;8.53;;;4.20;99.90;;;;;;5026291;28;20180;-64
2021/11/05 05:55:30;;;;;;;11.40;8.10;;;4.20;99.90;;;;;;5029999;28;20568;-65
2021/11/05 05:57:55;;;;;;;11.73;7.90;;;4.20;99.90;;;;;;5022165;28;20622;-65
2021/11/05 06:00:21;;;;;;;10.80;7.30;;;4.20;99.90;;;;;;5014942;28;20431;-65
2021/11/05 06:02:47;;;;;;;12.07;7.23;;;4.20;99.90;;;;;;5024325;28;20752;-63
2021/11/05 06:05:13;;;;;;;12.10;8.00;;;4.20;99.90;;;;;;5031838;28;20186;-64
2021/11/05 06:07:39;;;;;;;14.57;8.03;;;4.20;99.90;;;;;;5030268;28;20238;-65
2021/11/05 06:10:05;;;;;;;12.77;8.50;;;4.20;99.90;;;;;;5020920;28;20773;-65
2021/11/05 06:12:32;;;;;;;12.73;7.73;;;4.20;99.90;;;;;;5031004;28;20178;-64
2021/11/05 06:14:58;;;;;;;13.83;8.23;;;4.20;99.90;;;;;;5022092;28;20427;-64
2021/11/05 06:17:24;;;;;;;16.40;8.43;;;4.20;99.90;;;;;;5029248;28;20442;-65
2021/11/05 06:19:50;;;;;;;14.63;8.60;;;4.20;99.90;;;;;;5029453;28;20584;-63
2021/11/05 06:22:15;;;;;;;12.90;8.30;;;4.20;99.90;;;;;;5026705;28;20183;-64
2021/11/05 06:24:41;;;;;;;14.37;8.20;;;4.20;99.90;;;;;;5026593;28;20715;-64
2021/11/05 06:27:07;;;;;;;17.50;8.23;;;4.20;99.90;;;;;;5025107;28;20259;-65
2021/11/05 06:29:33;;;;;;;13.27;7.30;;;4.20;99.90;;;;;;5014938;28;20732;-64
2021/11/05 06:31:58;;;;;;;11.37;7.87;;;4.20;99.90;;;;;;5026870;28;20422;-63
2021/11/05 06:34:24;;;;;;;10.87;8.00;;;4.20;99.90;;;;;;5015295;28;20695;-64
2021/11/05 06:36:49;;;;;;;11.37;7.87;;;4.20;99.90;;;;;;5017662;28;20667;-65
2021/11/05 06:39:15;;;;;;;13.37;8.73;;;4.20;99.90;;;;;;5023385;28;20189;-65
2021/11/05 06:41:41;;;;;;;13.37;8.13;;;4.20;99.90;;;;;;5019073;28;20176;-64
2021/11/05 06:44:06;;;;;;;13.53;8.13;;;4.20;99.90;;;;;;5022204;28;20873;-64
2021/11/05 06:46:33;;;;;;;13.50;8.40;;;4.30;99.90;;;;;;5030612;28;20195;-64
2021/11/05 06:48:58;;;;;;;10.47;7.47;;;4.30;99.90;;;;;;5014096;28;20195;-64
2021/11/05 06:51:24;;;;;;;11.90;7.87;;;4.30;99.90;;;;;;5027441;28;20771;-64
2021/11/05 06:53:50;;;;;;;11.33;7.33;;;4.30;99.90;;;;;;5028797;28;20702;-64
2021/11/05 06:56:18;;;;;;;12.20;7.50;;;4.40;99.90;;;;;;5022767;28;20430;-65
2021/11/05 06:58:44;;;;;;;11.30;6.87;;;4.40;99.90;;;;;;5019340;28;20173;-65
2021/11/05 07:01:11;;;;;;;17.53;6.90;;;4.40;99.90;;;;;;5026281;28;20438;-64
2021/11/05 07:03:37;;;;;;;10.20;6.90;;;4.40;99.90;;;;;;5018774;28;20560;-65
2021/11/05 07:06:03;;;;;;;8.33;6.17;;;4.40;99.90;;;;;;5028306;28;20426;-65
2021/11/05 07:08:30;;;;;;;9.90;6.87;;;4.50;99.90;;;;;;5029664;28;20821;-64
2021/11/05 07:10:56;;;;;;;10.43;7.07;;;4.50;99.90;;;;;;5028631;28;20426;-65
2021/11/05 07:13:22;;;;;;;10.10;7.60;;;4.50;99.90;;;;;;5026983;28;20426;-64
2021/11/05 07:15:48;;;;;;;9.23;6.63;;;4.50;99.90;;;;;;5024752;28;20222;-64
2021/11/05 07:18:15;;;;;;;10.00;6.53;;;4.50;99.90;;;;;;5023922;28;20635;-64
2021/11/05 07:20:43;;;;;;;10.47;6.87;;;4.50;99.90;;;;;;5018614;28;20513;-64
2021/11/05 07:23:11;;;;;;;12.23;6.87;;;4.60;99.90;;;;;;5021525;28;20510;-65
2021/11/05 07:25:37;;;;;;;13.27;8.40;;;4.60;99.90;;;;;;5022407;28;20481;-65
2021/11/05 07:28:03;;;;;;;19.80;9.40;;;4.60;99.90;;;;;;5029180;28;20442;-64
2021/11/05 07:30:30;;;;;;;13.43;8.70;;;4.60;99.90;;;;;;5013925;28;20426;-64
2021/11/05 07:32:56;;;;;;;17.93;10.27;;;4.70;99.90;;;;;;5029561;28;20434;-64
2021/11/05 07:35:23;;;;;;;18.27;9.37;;;4.70;99.90;;;;;;5029184;28;20429;-65
2021/11/05 07:37:50;;;;;;;15.67;10.10;;;4.80;99.90;;;;;;5030401;28;20939;-65
2021/11/05 07:40:16;;;;;;;15.90;9.40;;;4.80;99.90;;;;;;5017779;28;20435;-65
2021/11/05 07:42:44;;;;;;;13.20;8.20;;;4.80;99.90;;;;;;5019741;28;20433;-64
2021/11/05 07:45:13;;;;;;;16.40;9.50;;;4.80;99.90;;;;;;5020398;28;20921;-65
2021/11/05 07:47:43;;;;;;;15.17;8.57;;;4.80;99.90;;;;;;5017069;28;20454;-64
2021/11/05 07:50:10;;;;;;;12.70;8.60;;;4.90;99.90;;;;;;5026402;28;20996;-64
2021/11/05 07:52:36;;;;;;;15.50;9.40;;;4.90;99.90;;;;;;5022925;28;20482;-64
2021/11/05 07:55:04;;;;;;;14.40;8.17;;;5.00;99.90;;;;;;5019156;28;20435;-64
2021/11/05 07:57:29;;;;;;;14.50;8.20;;;5.00;99.90;;;;;;5010904;28;20482;-64
2021/11/05 07:59:56;;;;;;;15.60;9.90;;;5.10;99.90;;;;;;5023554;28;20456;-64
2021/11/05 08:02:22;;;;;;;12.80;7.73;;;5.10;99.90;;;;;;5013047;28;20177;-64
2021/11/05 08:04:47;;;;;;;12.90;8.33;;;5.10;99.90;;;;;;5020428;28;20430;-64
2021/11/05 08:07:13;;;;;;;12.23;8.37;;;5.20;99.90;;;;;;5026916;28;20211;-65
2021/11/05 08:09:39;;;;;;;16.33;7.90;;;5.20;99.90;;;;;;5028117;28;20276;-64
2021/11/05 08:12:04;;;;;;;14.47;8.67;;;5.20;99.90;;;;;;5026901;28;20168;-65
2021/11/05 08:14:30;;;;;;;11.40;7.27;;;5.20;99.90;;;;;;5017175;28;20180;-64
2021/11/05 08:16:56;;;;;;;12.33;7.60;;;5.20;99.90;;;;;;5018058;28;20458;-66
2021/11/05 08:19:21;;;;;;;11.87;7.93;;;5.20;99.90;;;;;;5019722;28;20208;-64
2021/11/05 08:21:47;;;;;;;12.03;7.90;;;5.20;99.90;;;;;;5020146;28;20168;-63
2021/11/05 08:24:13;;;;;;;13.00;7.37;;;5.30;99.90;;;;;;5027375;28;20210;-64
2021/11/05 08:26:39;;;;;;;12.13;7.60;;;5.30;99.90;;;;;;5029083;28;20199;-64
2021/11/05 08:29:06;;;;;;;12.40;8.10;;;5.30;99.90;;;;;;5025345;28;20196;-64
2021/11/05 08:31:32;;;;;;;11.90;7.43;;;5.30;99.90;;;;;;5028259;28;20423;-65
2021/11/05 08:33:58;;;;;;;9.60;6.63;;;5.40;99.90;;;;;;5018884;28;20895;-64
2021/11/05 08:36:25;;;;;;;8.70;6.57;;;5.40;99.90;;;;;;5023876;28;20262;-64
2021/11/05 08:38:52;;;;;;;11.40;7.20;;;5.50;99.90;;;;;;5022137;28;20622;-64
2021/11/05 08:41:19;;;;;;;10.73;6.17;;;5.50;99.90;;;;;;5025983;28;20979;-64
2021/11/05 08:43:52;;;;;;;9.50;6.40;;;5.60;99.90;;;;;;5020519;28;20973;-64
2021/11/05 08:46:20;;;;;;;10.83;6.33;;;5.60;99.90;;;;;;5016389;28;20427;-64
2021/11/05 08:48:56;;;;;;;9.47;6.40;;;5.70;99.90;;;;;;5024802;28;20461;-64
2021/11/05 08:51:22;;;;;;;9.73;6.83;;;5.70;99.90;;;;;;5023811;28;21000;-65
2021/11/05 08:53:48;;;;;;;10.87;6.10;;;5.70;99.90;;;;;;5028676;28;20479;-65
2021/11/05 08:56:15;;;;;;;11.10;6.50;;;5.80;99.90;;;;;;5026517;28;20431;-65
2021/11/05 08:58:41;;;;;;;8.07;5.37;;;5.80;99.90;;;;;;5030976;28;20236;-65
2021/11/05 09:01:08;;;;;;;7.63;5.70;;;5.80;99.90;;;;;;5031602;28;20641;-65
2021/11/05 09:03:34;;;;;;;8.03;6.00;;;5.80;99.90;;;;;;5030857;28;21475;-65
2021/11/05 09:06:00;;;;;;;9.27;6.20;;;5.80;99.90;;;;;;5023392;28;20442;-64
2021/11/05 09:08:29;;;;;;;8.97;6.10;;;5.90;99.90;;;;;;5026091;28;20458;-64
2021/11/05 09:10:59;;;;;;;9.33;6.37;;;5.90;99.90;;;;;;5025785;28;20422;-64
2021/11/05 09:13:25;;;;;;;10.03;6.00;;;5.90;99.90;;;;;;5022258;28;20430;-65
2021/11/05 09:15:51;;;;;;;9.17;6.10;;;6.00;99.90;;;;;;5030556;28;20422;-65
2021/11/05 09:18:18;;;;;;;9.37;5.30;;;6.00;99.90;;;;;;5025931;28;20191;-64
2021/11/05 09:20:44;;;;;;;6.93;5.43;;;6.10;99.90;;;;;;5030858;28;20418;-65
2021/11/05 09:23:10;;;;;;;7.17;5.33;;;6.20;99.90;;;;;;5030768;28;21010;-64
2021/11/05 09:25:35;;;;;;;7.90;5.80;;;6.30;99.90;;;;;;5031074;28;20438;-65
2021/11/05 09:28:01;;;;;;;9.93;5.13;;;6.40;99.90;;;;;;5032043;28;20219;-64
2021/11/05 09:30:27;;;;;;;8.43;5.70;;;6.50;99.90;;;;;;5023836;28;20259;-64
2021/11/05 09:32:53;;;;;;;7.43;5.17;;;6.50;99.90;;;;;;5030731;28;20434;-64
2021/11/05 09:35:20;;;;;;;7.57;5.33;;;6.50;99.90;;;;;;5029217;28;20431;-64
2021/11/05 09:37:49;;;;;;;7.33;5.23;;;6.70;99.90;;;;;;5026851;28;20964;-64
2021/11/05 09:40:15;;;;;;;8.17;5.10;;;6.70;99.90;;;;;;5031547;28;20537;-63
2021/11/05 09:42:47;;;;;;;6.13;4.57;;;6.80;99.90;;;;;;5028252;28;20582;-64
2021/11/05 09:45:14;;;;;;;7.80;5.83;;;6.90;99.90;;;;;;5022893;28;20804;-65
2021/11/05 09:47:41;;;;;;;7.47;4.83;;;7.10;99.90;;;;;;5025368;28;20445;-64
2021/11/05 09:50:09;;;;;;;9.30;4.93;;;7.10;99.90;;;;;;5015010;28;20550;-65
2021/11/05 09:52:34;;;;;;;7.60;4.17;;;7.20;99.90;;;;;;5026122;28;20443;-65
2021/11/05 09:55:02;;;;;;;4.90;3.83;;;7.20;99.90;;;;;;5015601;28;20431;-64
2021/11/05 09:57:28;;;;;;;4.20;3.80;;;7.20;99.90;;;;;;5024020;28;20572;-65
2021/11/05 09:59:56;;;;;;;6.00;4.33;;;7.20;99.90;;;;;;5026093;28;20441;-65
2021/11/05 10:02:22;;;;;;;6.70;4.50;;;7.20;99.90;;;;;;5020114;28;20431;-65
2021/11/05 10:04:48;;;;;;;6.07;4.47;;;7.20;99.90;;;;;;5029870;28;20426;-64
2021/11/05 10:07:14;;;;;;;5.43;3.90;;;7.30;99.90;;;;;;5029968;28;20508;-65
2021/11/05 10:09:45;;;;;;;7.30;3.73;;;7.30;99.90;;;;;;5029660;28;20211;-64
2021/11/05 10:12:20;;;;;;;6.27;4.13;;;7.30;99.90;;;;;;5021623;28;20207;-65
2021/11/05 10:14:53;;;;;;;4.03;3.30;;;7.30;99.90;;;;;;5020234;28;20426;-65
2021/11/05 10:17:19;;;;;;;4.10;3.07;;;7.30;99.90;;;;;;5029341;28;20450;-64
2021/11/05 10:19:53;;;;;;;3.07;2.77;;;7.40;99.90;;;;;;5024576;28;20506;-63
2021/11/05 10:22:48;;;;;;;3.63;2.87;;;7.50;99.90;;;;;;5012091;28;20411;-65
2021/11/05 10:25:38;;;;;;;3.03;2.53;;;7.50;99.90;;;;;;5013437;28;20435;-65
2021/11/05 10:28:06;;;;;;;2.50;2.30;;;7.50;99.90;;;;;;5023498;28;20439;-65
2021/11/05 10:30:49;;;;;;;1.63;1.50;;;7.50;99.90;;;;;;5017368;28;20454;-65
2021/11/05 10:33:18;;;;;;;1.70;1.60;;;7.50;99.90;;;;;;5021307;28;20498;-66
2021/11/05 10:35:47;;;;;;;2.90;1.40;;;7.50;98.80;;;;;;5017086;28;20509;-62
2021/11/05 10:38:13;;;;;;;1.50;1.40;;;7.40;98.80;;;;;;5025751;28;20542;-64
2021/11/05 10:40:43;;;;;;;1.40;1.30;;;7.40;98.30;;;;;;5029636;28;20944;-64
2021/11/05 10:43:11;;;;;;;2.00;1.50;;;7.40;98.50;;;;;;5026448;28;20465;-64
2021/11/05 10:45:38;;;;;;;1.63;1.30;;;7.50;97.40;;;;;;5022713;28;20522;-65
2021/11/05 10:48:09;;;;;;;1.60;1.20;;;7.50;97.60;;;;;;5026450;28;20508;-65
2021/11/05 10:50:49;;;;;;;1.47;1.37;;;7.50;97.80;;;;;;5021822;28;21033;-64
2021/11/05 10:53:18;;;;;;;1.10;1.00;;;7.50;96.60;;;;;;5020227;28;20457;-65
2021/11/05 10:55:58;;;;;;;1.20;1.20;;;7.50;96.60;;;;;;5030098;28;21072;-64
2021/11/05 10:58:33;;;;;;;1.20;1.20;;;7.50;96.50;;;;;;5016980;28;20458;-63
2021/11/05 11:01:02;;;;;;;2.37;1.30;;;7.50;97.10;;;;;;5027547;28;20433;-63
2021/11/05 11:03:31;;;;;;;1.33;1.23;;;7.60;97.30;;;;;;5022641;28;20505;-64
2021/11/05 11:06:10;;;;;;;3.10;2.90;;;7.50;97.00;;;;;;5020435;28;20427;-65
2021/11/05 11:08:41;;;;;;;1.73;1.63;;;7.60;97.40;;;;;;5022716;28;20486;-64
2021/11/05 11:11:29;;;;;;;1.37;1.27;;;7.50;97.80;;;;;;5032088;28;20407;-64
2021/11/05 11:13:56;;;;;;;1.30;1.20;;;7.50;97.60;;;;;;5029161;28;20438;-64
2021/11/05 11:16:22;;;;;;;1.30;1.20;;;7.50;97.10;;;;;;5021170;28;20506;-63
2021/11/05 11:19:06;;;;;;;1.80;1.70;;;7.40;97.80;;;;;;5028658;28;20509;-64
2021/11/05 11:21:38;;;;;;;1.67;1.57;;;7.40;98.70;;;;;;5027517;28;20274;-65
2021/11/05 11:24:06;;;;;;;2.10;1.90;;;7.30;99.60;;;;;;5028301;28;20923;-63
2021/11/05 11:26:33;;;;;;;2.07;1.90;;;7.30;99.90;;;;;;5020817;28;20447;-64
2021/11/05 11:28:59;;;;;;;1.90;1.80;;;7.20;99.40;;;;;;5022235;28;20458;-64
2021/11/05 11:31:25;;;;;;;1.60;1.50;;;7.20;99.70;;;;;;5022118;28;20547;-64
2021/11/05 11:33:52;;;;;;;1.60;1.50;;;7.20;99.80;;;;;;5027672;28;20565;-63
2021/11/05 11:36:20;;;;;;;2.27;1.80;;;7.20;99.60;;;;;;5019038;28;20835;-64
2021/11/05 11:38:52;;;;;;;1.97;1.87;;;7.10;99.90;;;;;;5028653;28;20414;-64
2021/11/05 11:41:20;;;;;;;2.13;1.87;;;7.20;99.90;;;;;;5017795;28;20973;-64
2021/11/05 11:43:47;;;;;;;1.70;1.60;;;7.10;99.90;;;;;;5024297;28;20430;-63
2021/11/05 11:46:13;;;;;;;2.10;2.00;;;7.10;99.60;;;;;;5021529;28;20435;-65
2021/11/05 11:48:48;;;;;;;2.43;2.27;;;7.10;99.70;;;;;;5029564;28;20463;-64
2021/11/05 11:51:43;;;;;;;3.30;2.87;;;7.10;99.70;;;;;;5022484;28;20449;-64
2021/11/05 11:54:11;;;;;;;4.03;3.40;;;7.10;99.40;;;;;;5023914;28;20421;-63
2021/11/05 11:56:39;;;;;;;2.97;2.70;;;7.10;99.00;;;;;;5026020;28;20453;-64
2021/11/05 11:59:16;;;;;;;3.80;3.50;;;7.10;98.90;;;;;;5025743;28;20536;-65
2021/11/05 12:01:45;;;;;;;3.47;3.03;;;7.10;99.10;;;;;;5025351;28;20417;-64
2021/11/05 12:04:17;;;;;;;3.50;3.03;;;7.10;99.20;;;;;;5028423;28;20449;-65
2021/11/05 12:06:46;;;;;;;2.73;2.53;;;7.10;99.60;;;;;;5023973;28;20479;-64
2021/11/05 12:09:26;;;;;;;4.33;2.47;;;7.20;99.90;;;;;;5026060;28;20451;-64
2021/11/05 12:12:21;;;;;;;2.97;2.40;;;7.20;99.90;;;;;;5024528;28;20518;-64
2021/11/05 12:14:58;;;;;;;2.60;2.40;;;7.30;99.90;;;;;;5023846;28;20458;-64
2021/11/05 12:17:29;;;;;;;2.13;2.03;;;7.40;99.90;;;;;;5026337;28;20453;-65
2021/11/05 12:20:01;;;;;;;3.77;2.50;;;7.50;99.20;;;;;;5024752;28;20453;-64
2021/11/05 12:22:28;;;;;;;2.87;2.60;;;7.50;99.30;;;;;;5018775;28;20434;-64
2021/11/05 12:25:18;;;;;;;2.90;2.70;;;7.60;99.90;;;;;;5020726;28;20517;-64
2021/11/05 12:28:20;;;;;;;3.37;2.80;;;7.80;99.90;;;;;;5021757;28;20430;-64
2021/11/05 12:30:48;;;;;;;3.77;2.70;;;8.00;99.20;;;;;;5026593;28;20848;-64
2021/11/05 12:33:33;;;;;;;3.70;2.97;;;8.10;97.50;;;;;;5028182;28;20472;-64
2021/11/05 12:36:02;;;;;;;2.90;2.70;;;8.30;96.20;;;;;;5024115;28;20795;-65
2021/11/05 12:38:29;;;;;;;3.37;3.07;;;8.40;96.00;;;;;;5016062;28;20981;-63
2021/11/05 12:41:04;;;;;;;2.80;2.60;;;8.50;95.50;;;;;;5023137;28;20425;-64
2021/11/05 12:43:37;;;;;;;3.20;2.90;;;8.70;95.10;;;;;;5014398;28;20418;-65
2021/11/05 12:46:16;;;;;;;4.57;3.10;;;8.80;93.90;;;;;;5020761;28;20411;-65
2021/11/05 12:48:47;;;;;;;3.10;2.80;;;8.90;93.30;;;;;;5018752;28;21098;-65
2021/11/05 12:51:20;;;;;;;3.27;2.97;;;8.90;93.70;;;;;;5023051;28;20419;-64
2021/11/05 12:53:58;;;;;;;3.33;3.03;;;9.00;94.10;;;;;;5022154;28;20410;-65
2021/11/05 12:56:24;;;;;;;4.23;2.90;;;9.00;94.20;;;;;;5023373;28;20488;-64